Hlavní strana
METAR-TAF:

METAR-TAF

Letiště :

Air Force Base Waterkloof

Waterkloof, Jihoafrická republika

zeměpisná šířka: 25-50S, zeměpisná délka: 028-13E, výška: 1498 m

Aktuální stav počasí

Zpráva byla vytvořena před 35 minutami, v 18:00 UTC
Severní vítr 2 kt
Teplota
Tlak 1028 hPa

METAR: FAWK 231800Z AUTO 01002KT //// // ////// ///// Q1028

Čas: 20:35 (18:35 UTC)

Předpověď počasí

Zpráva byla vytvořena před 9 hodinami a 35 minutami, v 09:00 UTC
Předpověď platná od 23 v 10 UTC do 23 v 18 UTC
Severoseverozápadní vítr 5 kt
Viditelnost 10 km a více
Žádná oblačnost pod 1500 m, nevyskytují se cumulonimby.
Změna
od 23 v 13 UTC do 23 v 15 UTC
Západní vítr 5 kt

TAF: FAWK 230900Z 2310/2318 33005KT CAVOK BECMG 2313/2315 27005KT TX25/2313Z TN14/2318Z

Stav a předpovědi počasí z více než 4 000 letišť (zprávy METAR a TAF).

Červené a žluté tečky na mapě představují dostupné meteorologické stanice.

Když kurzor umístíte na tečku, zobrazí se název stanice.

Pak kliknutím zobrazíte stav a předpověď počasí.

Chcete-li změnit mapu, kliknutím na zelené tlačítko se znaménkem +mapu přiblížíte, kliknutím na zelené tlačítko se znaménkem – mapu oddálíte a kliknutím na zelené šipky přejdete na sousední mapy.


METAR-TAF: